Terminal Aerodrome Forecast
Issued by NWS

Home | Current Version | Previous Version | Text Only | Print | Product List | Glossary On
Versions: 1 2 3 4 5 6 7 8 9 10 11 12 13 14 15 16 17 18 19 20 21 22 23 24 25 26 27 28 29 30 31 32 33 34 35 36 37 38 39 40 41 42
000
FTAK31 PANC 250017 AAA
TAFAEN
TAF AMD
PAEN 250017Z 2500/2524 21014G20KT P6SM -SHRA BKN045
     FM250300 19010KT P6SM -RA OVC035
     FM250900 18005KT 5SM -RA BR SCT015 OVC025
     FM251400 VRB03KT 4SM -RA BR SCT008 OVC015
     FM252000 VRB04KT P6SM -RA SCT015 OVC030=

USA.gov is the U.S. government's official web portal to all federal, state and local government web resources and services.